sensor_id;sensor_type;location;lat;lon;timestamp;pressure;altitude;pressure_sealevel;temperature;humidity
61870;BME280;47810;42.264;23.826;2023-04-12T00:01:52;92838.75;;;8.27;56.32
61870;BME280;47810;42.264;23.826;2023-04-12T00:04:17;92850.22;;;8.26;56.27
61870;BME280;47810;42.264;23.826;2023-04-12T00:06:43;92845.19;;;8.23;56.95
61870;BME280;47810;42.264;23.826;2023-04-12T00:09:13;92844.97;;;8.26;56.98
61870;BME280;47810;42.264;23.826;2023-04-12T00:11:42;92848.75;;;8.22;56.85
61870;BME280;47810;42.264;23.826;2023-04-12T00:14:07;92843.03;;;8.28;56.41
61870;BME280;47810;42.264;23.826;2023-04-12T00:16:33;92849.00;;;8.19;56.82
61870;BME280;47810;42.264;23.826;2023-04-12T00:19:00;92846.22;;;8.20;57.21
61870;BME280;47810;42.264;23.826;2023-04-12T00:21:27;92850.53;;;8.21;57.66
61870;BME280;47810;42.264;23.826;2023-04-12T00:23:54;92850.59;;;8.32;56.06
61870;BME280;47810;42.264;23.826;2023-04-12T00:26:20;92853.94;;;8.34;56.48
61870;BME280;47810;42.264;23.826;2023-04-12T00:28:46;92860.50;;;8.29;57.72
61870;BME280;47810;42.264;23.826;2023-04-12T00:31:12;92854.69;;;8.36;57.05
61870;BME280;47810;42.264;23.826;2023-04-12T00:33:37;92860.50;;;8.42;56.49
61870;BME280;47810;42.264;23.826;2023-04-12T00:36:03;92845.97;;;8.36;56.75
61870;BME280;47810;42.264;23.826;2023-04-12T00:38:29;92850.81;;;8.29;57.09
61870;BME280;47810;42.264;23.826;2023-04-12T00:40:55;92850.22;;;8.26;56.55
61870;BME280;47810;42.264;23.826;2023-04-12T00:43:22;92843.66;;;8.31;57.01
61870;BME280;47810;42.264;23.826;2023-04-12T00:45:51;92847.59;;;8.26;56.78
61870;BME280;47810;42.264;23.826;2023-04-12T00:48:18;92837.28;;;8.23;56.71
61870;BME280;47810;42.264;23.826;2023-04-12T00:50:44;92829.63;;;8.20;56.79
61870;BME280;47810;42.264;23.826;2023-04-12T00:53:12;92830.59;;;8.19;55.84
61870;BME280;47810;42.264;23.826;2023-04-12T00:55:47;92826.81;;;8.34;55.50
61870;BME280;47810;42.264;23.826;2023-04-12T00:58:13;92827.38;;;8.26;56.10
61870;BME280;47810;42.264;23.826;2023-04-12T01:00:39;92832.06;;;8.34;55.85
61870;BME280;47810;42.264;23.826;2023-04-12T01:03:05;92825.81;;;8.24;57.00
61870;BME280;47810;42.264;23.826;2023-04-12T01:05:34;92824.16;;;8.23;56.26
61870;BME280;47810;42.264;23.826;2023-04-12T01:08:39;92831.50;;;8.17;56.02
61870;BME280;47810;42.264;23.826;2023-04-12T01:11:16;92825.75;;;8.36;56.26
61870;BME280;47810;42.264;23.826;2023-04-12T01:14:02;92816.25;;;8.23;57.10
61870;BME280;47810;42.264;23.826;2023-04-12T01:17:06;92815.88;;;8.40;54.62
61870;BME280;47810;42.264;23.826;2023-04-12T01:25:08;92808.41;;;8.34;56.46
61870;BME280;47810;42.264;23.826;2023-04-12T01:27:51;92797.41;;;8.29;55.74
61870;BME280;47810;42.264;23.826;2023-04-12T01:30:18;92809.13;;;8.36;55.14
61870;BME280;47810;42.264;23.826;2023-04-12T01:32:45;92802.03;;;8.38;54.96
61870;BME280;47810;42.264;23.826;2023-04-12T01:35:12;92796.56;;;8.28;56.41
61870;BME280;47810;42.264;23.826;2023-04-12T01:37:40;92803.34;;;8.20;55.87
61870;BME280;47810;42.264;23.826;2023-04-12T01:40:06;92803.56;;;8.16;56.92
61870;BME280;47810;42.264;23.826;2023-04-12T01:42:33;92795.53;;;8.18;55.91
61870;BME280;47810;42.264;23.826;2023-04-12T01:44:59;92796.78;;;8.25;55.20
61870;BME280;47810;42.264;23.826;2023-04-12T01:47:24;92794.31;;;8.35;54.96
61870;BME280;47810;42.264;23.826;2023-04-12T01:52:22;92790.00;;;8.34;54.68
61870;BME280;47810;42.264;23.826;2023-04-12T01:54:51;92784.50;;;8.37;55.66
61870;BME280;47810;42.264;23.826;2023-04-12T01:57:19;92795.94;;;8.49;54.60
61870;BME280;47810;42.264;23.826;2023-04-12T01:59:46;92791.16;;;8.43;53.99
61870;BME280;47810;42.264;23.826;2023-04-12T02:02:13;92786.00;;;8.41;54.27
61870;BME280;47810;42.264;23.826;2023-04-12T02:04:39;92787.00;;;8.51;53.60
61870;BME280;47810;42.264;23.826;2023-04-12T02:07:05;92802.41;;;8.45;54.57
61870;BME280;47810;42.264;23.826;2023-04-12T02:09:35;92807.88;;;8.42;54.53
61870;BME280;47810;42.264;23.826;2023-04-12T02:12:01;92803.38;;;8.31;54.87
61870;BME280;47810;42.264;23.826;2023-04-12T02:14:29;92815.88;;;8.40;55.10
61870;BME280;47810;42.264;23.826;2023-04-12T02:16:55;92801.53;;;8.44;54.51
61870;BME280;47810;42.264;23.826;2023-04-12T02:19:22;92815.03;;;8.39;54.46
61870;BME280;47810;42.264;23.826;2023-04-12T02:21:48;92801.13;;;8.37;54.73
61870;BME280;47810;42.264;23.826;2023-04-12T02:24:16;92794.19;;;8.36;53.79
61870;BME280;47810;42.264;23.826;2023-04-12T02:26:42;92814.22;;;8.39;55.21
61870;BME280;47810;42.264;23.826;2023-04-12T02:29:08;92791.44;;;8.51;53.79
61870;BME280;47810;42.264;23.826;2023-04-12T02:31:34;92790.56;;;8.50;54.96
61870;BME280;47810;42.264;23.826;2023-04-12T02:34:01;92796.06;;;8.47;54.34
61870;BME280;47810;42.264;23.826;2023-04-12T02:36:27;92782.81;;;8.49;55.29
61870;BME280;47810;42.264;23.826;2023-04-12T02:38:52;92788.44;;;8.55;55.40
61870;BME280;47810;42.264;23.826;2023-04-12T02:41:19;92787.22;;;8.48;54.94
61870;BME280;47810;42.264;23.826;2023-04-12T02:43:44;92797.00;;;8.46;55.53
61870;BME280;47810;42.264;23.826;2023-04-12T02:46:14;92774.16;;;8.47;54.77
61870;BME280;47810;42.264;23.826;2023-04-12T02:48:40;92782.44;;;8.53;54.87
61870;BME280;47810;42.264;23.826;2023-04-12T02:51:05;92786.63;;;8.45;55.11
61870;BME280;47810;42.264;23.826;2023-04-12T02:53:31;92781.97;;;8.48;55.36
61870;BME280;47810;42.264;23.826;2023-04-12T02:55:57;92785.69;;;8.57;55.23
61870;BME280;47810;42.264;23.826;2023-04-12T02:58:25;92773.78;;;8.40;56.17
61870;BME280;47810;42.264;23.826;2023-04-12T03:00:52;92776.56;;;8.38;55.31
61870;BME280;47810;42.264;23.826;2023-04-12T03:03:17;92772.13;;;8.39;55.76
61870;BME280;47810;42.264;23.826;2023-04-12T03:05:43;92776.84;;;8.34;55.97
61870;BME280;47810;42.264;23.826;2023-04-12T03:08:12;92781.41;;;8.32;56.68
61870;BME280;47810;42.264;23.826;2023-04-12T03:10:37;92768.72;;;8.37;56.22
61870;BME280;47810;42.264;23.826;2023-04-12T03:13:03;92782.00;;;8.35;55.69
61870;BME280;47810;42.264;23.826;2023-04-12T03:15:30;92776.19;;;8.43;54.52
61870;BME280;47810;42.264;23.826;2023-04-12T03:17:56;92763.69;;;8.34;55.60
61870;BME280;47810;42.264;23.826;2023-04-12T03:20:21;92773.56;;;8.43;54.24
61870;BME280;47810;42.264;23.826;2023-04-12T03:22:52;92772.38;;;8.47;54.19
61870;BME280;47810;42.264;23.826;2023-04-12T03:25:18;92773.16;;;8.36;54.81
61870;BME280;47810;42.264;23.826;2023-04-12T03:27:44;92768.31;;;8.43;54.73
61870;BME280;47810;42.264;23.826;2023-04-12T03:30:10;92775.91;;;8.35;54.41
61870;BME280;47810;42.264;23.826;2023-04-12T03:32:37;92783.03;;;8.46;54.81
61870;BME280;47810;42.264;23.826;2023-04-12T03:35:03;92774.06;;;8.48;54.08
61870;BME280;47810;42.264;23.826;2023-04-12T03:37:29;92764.38;;;8.49;54.31
61870;BME280;47810;42.264;23.826;2023-04-12T03:39:55;92778.16;;;8.52;54.12
61870;BME280;47810;42.264;23.826;2023-04-12T03:42:20;92766.72;;;8.40;54.81
61870;BME280;47810;42.264;23.826;2023-04-12T03:44:46;92771.06;;;8.42;55.16
61870;BME280;47810;42.264;23.826;2023-04-12T03:47:13;92780.22;;;8.36;56.37
61870;BME280;47810;42.264;23.826;2023-04-12T03:49:38;92770.22;;;8.41;56.52
61870;BME280;47810;42.264;23.826;2023-04-12T03:52:04;92770.88;;;8.32;56.79
61870;BME280;47810;42.264;23.826;2023-04-12T03:54:30;92768.53;;;8.40;56.41
61870;BME280;47810;42.264;23.826;2023-04-12T03:56:56;92766.63;;;8.42;56.59
61870;BME280;47810;42.264;23.826;2023-04-12T03:59:22;92758.66;;;8.31;57.11
61870;BME280;47810;42.264;23.826;2023-04-12T04:01:47;92770.00;;;8.31;56.85
61870;BME280;47810;42.264;23.826;2023-04-12T04:04:13;92777.56;;;8.36;56.43
61870;BME280;47810;42.264;23.826;2023-04-12T04:06:38;92793.81;;;8.30;56.51
61870;BME280;47810;42.264;23.826;2023-04-12T04:09:05;92772.97;;;8.39;56.10
61870;BME280;47810;42.264;23.826;2023-04-12T04:11:31;92781.63;;;8.29;57.07
61870;BME280;47810;42.264;23.826;2023-04-12T04:13:56;92795.47;;;8.31;56.27
61870;BME280;47810;42.264;23.826;2023-04-12T04:16:22;92794.00;;;8.39;56.33
61870;BME280;47810;42.264;23.826;2023-04-12T04:18:47;92794.00;;;8.39;55.84
61870;BME280;47810;42.264;23.826;2023-04-12T04:21:13;92795.59;;;8.53;55.50
61870;BME280;47810;42.264;23.826;2023-04-12T04:23:39;92800.84;;;8.53;55.52
61870;BME280;47810;42.264;23.826;2023-04-12T04:26:08;92795.44;;;8.44;56.59
61870;BME280;47810;42.264;23.826;2023-04-12T04:28:35;92801.06;;;8.39;57.53
61870;BME280;47810;42.264;23.826;2023-04-12T04:31:01;92796.06;;;8.47;58.21
61870;BME280;47810;42.264;23.826;2023-04-12T04:33:33;92799.03;;;8.43;58.12
61870;BME280;47810;42.264;23.826;2023-04-12T04:36:01;92793.94;;;8.52;57.93
61870;BME280;47810;42.264;23.826;2023-04-12T04:38:29;92800.84;;;8.53;57.84
61870;BME280;47810;42.264;23.826;2023-04-12T04:40:58;92800.84;;;8.53;58.45
61870;BME280;47810;42.264;23.826;2023-04-12T04:43:26;92808.03;;;8.51;58.64
61870;BME280;47810;42.264;23.826;2023-04-12T04:45:54;92827.16;;;8.53;59.41
61870;BME280;47810;42.264;23.826;2023-04-12T04:48:21;92836.25;;;8.49;60.96
61870;BME280;47810;42.264;23.826;2023-04-12T04:50:47;92845.34;;;8.32;63.79
61870;BME280;47810;42.264;23.826;2023-04-12T04:53:12;92829.19;;;8.26;65.05
61870;BME280;47810;42.264;23.826;2023-04-12T04:55:38;92833.69;;;8.24;65.37
61870;BME280;47810;42.264;23.826;2023-04-12T04:58:05;92839.47;;;8.29;65.00
61870;BME280;47810;42.264;23.826;2023-04-12T05:00:33;92857.53;;;8.33;64.32
61870;BME280;47810;42.264;23.826;2023-04-12T05:03:00;92837.78;;;8.28;63.65
61870;BME280;47810;42.264;23.826;2023-04-12T05:05:27;92842.38;;;8.37;62.65
61870;BME280;47810;42.264;23.826;2023-04-12T05:07:53;92842.78;;;8.44;62.24
61870;BME280;47810;42.264;23.826;2023-04-12T05:10:19;92851.81;;;8.52;61.13
61870;BME280;47810;42.264;23.826;2023-04-12T05:12:45;92861.13;;;8.56;60.42
61870;BME280;47810;42.264;23.826;2023-04-12T05:15:10;92837.63;;;8.66;59.35
61870;BME280;47810;42.264;23.826;2023-04-12T05:17:36;92850.16;;;8.86;59.10
61870;BME280;47810;42.264;23.826;2023-04-12T05:20:02;92861.97;;;8.92;58.84
61870;BME280;47810;42.264;23.826;2023-04-12T05:22:30;92867.31;;;9.03;58.11
61870;BME280;47810;42.264;23.826;2023-04-12T05:25:06;92851.88;;;9.10;57.65
61870;BME280;47810;42.264;23.826;2023-04-12T05:27:31;92858.94;;;9.21;56.52
61870;BME280;47810;42.264;23.826;2023-04-12T05:29:57;92860.03;;;9.18;56.52
61870;BME280;47810;42.264;23.826;2023-04-12T05:32:25;92875.94;;;9.17;55.60
61870;BME280;47810;42.264;23.826;2023-04-12T05:34:50;92864.94;;;9.23;55.82
61870;BME280;47810;42.264;23.826;2023-04-12T05:37:16;92876.91;;;9.16;53.27
61870;BME280;47810;42.264;23.826;2023-04-12T05:39:42;92889.34;;;9.14;52.74
61870;BME280;47810;42.264;23.826;2023-04-12T05:42:08;92891.44;;;8.97;52.46
61870;BME280;47810;42.264;23.826;2023-04-12T05:44:34;92895.97;;;8.95;52.82
61870;BME280;47810;42.264;23.826;2023-04-12T05:46:59;92900.09;;;8.99;51.77
61870;BME280;47810;42.264;23.826;2023-04-12T05:49:27;92879.28;;;9.07;52.77
61870;BME280;47810;42.264;23.826;2023-04-12T05:51:53;92898.44;;;9.09;51.43
61870;BME280;47810;42.264;23.826;2023-04-12T05:54:18;92889.81;;;9.07;51.87
61870;BME280;47810;42.264;23.826;2023-04-12T05:56:45;92892.34;;;9.09;52.46
61870;BME280;47810;42.264;23.826;2023-04-12T05:59:11;92897.91;;;8.93;50.94
61870;BME280;47810;42.264;23.826;2023-04-12T06:01:36;92886.84;;;9.12;51.23
61870;BME280;47810;42.264;23.826;2023-04-12T06:04:07;92884.06;;;9.14;52.63
61870;BME280;47810;42.264;23.826;2023-04-12T06:21:12;92877.84;;;9.03;52.44
61870;BME280;47810;42.264;23.826;2023-04-12T06:23:56;92891.59;;;9.07;53.71
61870;BME280;47810;42.264;23.826;2023-04-12T06:26:22;92891.97;;;9.02;51.89
61870;BME280;47810;42.264;23.826;2023-04-12T06:46:39;92889.19;;;8.69;52.75
61870;BME280;47810;42.264;23.826;2023-04-12T06:49:16;92881.50;;;8.66;52.84
61870;BME280;47810;42.264;23.826;2023-04-12T06:51:54;92886.84;;;8.77;52.70
61870;BME280;47810;42.264;23.826;2023-04-12T07:01:29;92873.63;;;9.01;52.30
61870;BME280;47810;42.264;23.826;2023-04-12T07:03:55;92875.16;;;8.92;51.49
61870;BME280;47810;42.264;23.826;2023-04-12T07:09:19;92881.38;;;8.91;52.39
61870;BME280;47810;42.264;23.826;2023-04-12T07:11:50;92891.59;;;8.72;52.50
61870;BME280;47810;42.264;23.826;2023-04-12T07:17:08;92926.28;;;8.53;57.20
61870;BME280;47810;42.264;23.826;2023-04-12T07:19:37;92937.47;;;8.31;61.45
61870;BME280;47810;42.264;23.826;2023-04-12T07:22:06;92965.97;;;8.00;65.77
61870;BME280;47810;42.264;23.826;2023-04-12T07:24:32;92959.13;;;7.34;68.85
61870;BME280;47810;42.264;23.826;2023-04-12T07:26:57;92954.78;;;7.07;71.76
61870;BME280;47810;42.264;23.826;2023-04-12T07:29:23;92948.06;;;7.03;72.30
61870;BME280;47810;42.264;23.826;2023-04-12T07:31:49;92939.94;;;7.06;73.35
61870;BME280;47810;42.264;23.826;2023-04-12T07:34:14;92919.63;;;7.22;70.04
61870;BME280;47810;42.264;23.826;2023-04-12T07:36:40;92929.41;;;7.33;70.38
61870;BME280;47810;42.264;23.826;2023-04-12T07:39:08;92918.47;;;7.52;69.97
61870;BME280;47810;42.264;23.826;2023-04-12T07:41:36;92916.22;;;7.97;70.64
61870;BME280;47810;42.264;23.826;2023-04-12T07:44:02;92917.50;;;7.79;66.85
61870;BME280;47810;42.264;23.826;2023-04-12T07:46:28;92929.69;;;7.67;67.98
61870;BME280;47810;42.264;23.826;2023-04-12T07:48:53;92911.09;;;7.57;68.07
61870;BME280;47810;42.264;23.826;2023-04-12T07:51:18;92905.00;;;7.69;68.27
61870;BME280;47810;42.264;23.826;2023-04-12T07:53:44;92921.19;;;7.63;68.16
61870;BME280;47810;42.264;23.826;2023-04-12T07:56:12;92910.59;;;7.52;68.01
61870;BME280;47810;42.264;23.826;2023-04-12T07:58:38;92903.56;;;7.65;66.34
61870;BME280;47810;42.264;23.826;2023-04-12T08:01:04;92896.06;;;8.22;66.42
61870;BME280;47810;42.264;23.826;2023-04-12T08:03:30;92890.03;;;8.69;63.28
61870;BME280;47810;42.264;23.826;2023-04-12T08:05:55;92875.19;;;8.44;61.11
61870;BME280;47810;42.264;23.826;2023-04-12T08:08:21;92863.69;;;8.69;61.14
61870;BME280;47810;42.264;23.826;2023-04-12T08:10:47;92872.78;;;8.65;58.30
61870;BME280;47810;42.264;23.826;2023-04-12T08:13:13;92864.66;;;9.03;57.33
61870;BME280;47810;42.264;23.826;2023-04-12T08:15:41;92877.44;;;9.43;56.20
61870;BME280;47810;42.264;23.826;2023-04-12T08:18:08;92851.94;;;9.55;55.51
61870;BME280;47810;42.264;23.826;2023-04-12T08:20:34;92866.69;;;9.80;53.43
61870;BME280;47810;42.264;23.826;2023-04-12T08:22:59;92857.56;;;9.84;52.80
61870;BME280;47810;42.264;23.826;2023-04-12T08:25:25;92839.22;;;10.28;51.79
61870;BME280;47810;42.264;23.826;2023-04-12T08:27:51;92847.69;;;10.20;49.63
61870;BME280;47810;42.264;23.826;2023-04-12T08:30:16;92847.88;;;9.96;50.91
61870;BME280;47810;42.264;23.826;2023-04-12T08:32:42;92837.63;;;10.36;48.44
61870;BME280;47810;42.264;23.826;2023-04-12T08:35:08;92831.00;;;10.74;49.63
61870;BME280;47810;42.264;23.826;2023-04-12T08:37:34;92825.16;;;10.38;49.16
61870;BME280;47810;42.264;23.826;2023-04-12T08:40:04;92832.16;;;10.81;48.02
61870;BME280;47810;42.264;23.826;2023-04-12T08:42:31;92823.31;;;11.24;47.17
61870;BME280;47810;42.264;23.826;2023-04-12T08:44:57;92828.34;;;11.27;48.57
61870;BME280;47810;42.264;23.826;2023-04-12T08:47:23;92827.88;;;11.43;48.65
61870;BME280;47810;42.264;23.826;2023-04-12T08:49:48;92813.53;;;11.15;46.72
61870;BME280;47810;42.264;23.826;2023-04-12T08:52:14;92845.47;;;11.54;46.94
61870;BME280;47810;42.264;23.826;2023-04-12T08:54:39;92808.72;;;11.51;45.33
61870;BME280;47810;42.264;23.826;2023-04-12T08:57:06;92801.19;;;11.25;46.66
61870;BME280;47810;42.264;23.826;2023-04-12T08:59:34;92826.47;;;10.97;45.38
61870;BME280;47810;42.264;23.826;2023-04-12T09:02:01;92818.09;;;10.92;46.50
61870;BME280;47810;42.264;23.826;2023-04-12T09:04:27;92837.78;;;10.88;45.50
61870;BME280;47810;42.264;23.826;2023-04-12T09:06:53;92840.41;;;10.67;47.62
61870;BME280;47810;42.264;23.826;2023-04-12T09:09:18;92832.00;;;10.62;49.33
61870;BME280;47810;42.264;23.826;2023-04-12T09:11:45;92834.78;;;10.60;47.43
61870;BME280;47810;42.264;23.826;2023-04-12T09:14:23;92824.97;;;10.83;47.17
61870;BME280;47810;42.264;23.826;2023-04-12T09:16:50;92819.44;;;10.86;48.01
61870;BME280;47810;42.264;23.826;2023-04-12T09:19:15;92855.44;;;10.87;49.18
61870;BME280;47810;42.264;23.826;2023-04-12T09:21:54;92785.09;;;11.07;48.33
61870;BME280;47810;42.264;23.826;2023-04-12T09:24:20;92802.28;;;11.43;47.15
61870;BME280;47810;42.264;23.826;2023-04-12T09:27:01;92793.22;;;10.94;45.65
61870;BME280;47810;42.264;23.826;2023-04-12T09:29:30;92784.47;;;11.46;46.85
61870;BME280;47810;42.264;23.826;2023-04-12T09:34:24;92808.09;;;11.68;46.13
61870;BME280;47810;42.264;23.826;2023-04-12T09:36:50;92774.59;;;11.17;46.55
61870;BME280;47810;42.264;23.826;2023-04-12T09:39:15;92769.94;;;11.92;44.58
61870;BME280;47810;42.264;23.826;2023-04-12T09:41:41;92755.03;;;11.29;44.15
61870;BME280;47810;42.264;23.826;2023-04-12T09:44:06;92767.09;;;11.83;46.23
61870;BME280;47810;42.264;23.826;2023-04-12T09:46:32;92767.78;;;12.35;43.74
61870;BME280;47810;42.264;23.826;2023-04-12T09:48:58;92775.00;;;12.04;43.99
61870;BME280;47810;42.264;23.826;2023-04-12T09:51:24;92789.41;;;11.91;43.29
61870;BME280;47810;42.264;23.826;2023-04-12T09:53:53;92769.72;;;11.74;44.19
61870;BME280;47810;42.264;23.826;2023-04-12T09:56:23;92768.53;;;11.87;45.59
61870;BME280;47810;42.264;23.826;2023-04-12T09:58:53;92775.06;;;12.53;46.22
61870;BME280;47810;42.264;23.826;2023-04-12T10:01:22;92759.13;;;12.14;44.37
61870;BME280;47810;42.264;23.826;2023-04-12T10:03:48;92766.69;;;12.67;45.14
61870;BME280;47810;42.264;23.826;2023-04-12T10:06:14;92748.31;;;12.75;42.62
61870;BME280;47810;42.264;23.826;2023-04-12T10:08:40;92749.41;;;12.53;42.12
61870;BME280;47810;42.264;23.826;2023-04-12T10:11:08;92758.34;;;12.43;42.22
61870;BME280;47810;42.264;23.826;2023-04-12T10:13:34;92743.28;;;12.72;42.48
61870;BME280;47810;42.264;23.826;2023-04-12T10:16:00;92762.22;;;12.48;42.30
61870;BME280;47810;42.264;23.826;2023-04-12T10:18:29;92759.56;;;12.77;41.09
61870;BME280;47810;42.264;23.826;2023-04-12T10:20:56;92739.91;;;12.90;40.08
61870;BME280;47810;42.264;23.826;2023-04-12T10:23:22;92746.94;;;13.38;41.84
61870;BME280;47810;42.264;23.826;2023-04-12T10:25:48;92754.16;;;12.69;40.60
61870;BME280;47810;42.264;23.826;2023-04-12T10:28:16;92742.16;;;12.85;42.17
61870;BME280;47810;42.264;23.826;2023-04-12T10:30:45;92729.84;;;13.03;42.36
61870;BME280;47810;42.264;23.826;2023-04-12T10:33:26;92740.41;;;13.22;41.95
61870;BME280;47810;42.264;23.826;2023-04-12T10:36:00;92769.22;;;13.64;42.97
61870;BME280;47810;42.264;23.826;2023-04-12T10:38:28;92730.94;;;13.30;39.71
61870;BME280;47810;42.264;23.826;2023-04-12T10:41:08;92718.19;;;13.43;42.33
61870;BME280;47810;42.264;23.826;2023-04-12T10:43:34;92701.13;;;12.98;41.25
61870;BME280;47810;42.264;23.826;2023-04-12T10:45:59;92719.19;;;13.97;39.42
61870;BME280;47810;42.264;23.826;2023-04-12T10:48:39;92715.53;;;13.43;38.77
61870;BME280;47810;42.264;23.826;2023-04-12T10:51:16;92733.72;;;13.18;41.69
61870;BME280;47810;42.264;23.826;2023-04-12T10:53:42;92735.69;;;13.16;38.12
61870;BME280;47810;42.264;23.826;2023-04-12T11:01:18;92729.78;;;11.77;40.83
61870;BME280;47810;42.264;23.826;2023-04-12T11:09:16;92744.09;;;12.92;39.23
61870;BME280;47810;42.264;23.826;2023-04-12T11:11:42;92725.34;;;13.33;39.56
61870;BME280;47810;42.264;23.826;2023-04-12T11:14:08;92710.09;;;12.88;38.90
61870;BME280;47810;42.264;23.826;2023-04-12T11:16:34;92714.72;;;13.42;39.02
61870;BME280;47810;42.264;23.826;2023-04-12T11:19:20;92716.97;;;13.18;39.01
61870;BME280;47810;42.264;23.826;2023-04-12T11:21:47;92729.34;;;12.61;39.04
61870;BME280;47810;42.264;23.826;2023-04-12T11:24:14;92715.13;;;12.32;40.42
61870;BME280;47810;42.264;23.826;2023-04-12T11:26:39;92724.75;;;11.74;40.23
61870;BME280;47810;42.264;23.826;2023-04-12T11:29:06;92732.16;;;12.40;40.84
61870;BME280;47810;42.264;23.826;2023-04-12T11:31:31;92722.94;;;12.63;40.37
61870;BME280;47810;42.264;23.826;2023-04-12T11:33:58;92736.13;;;13.02;38.83
61870;BME280;47810;42.264;23.826;2023-04-12T11:36:24;92711.53;;;12.24;37.62
61870;BME280;47810;42.264;23.826;2023-04-12T11:38:51;92721.84;;;11.77;36.84
61870;BME280;47810;42.264;23.826;2023-04-12T11:41:17;92708.88;;;11.64;37.94
61870;BME280;47810;42.264;23.826;2023-04-12T11:43:43;92706.66;;;11.69;38.16
61870;BME280;47810;42.264;23.826;2023-04-12T11:46:10;92721.97;;;11.65;36.63
61870;BME280;47810;42.264;23.826;2023-04-12T11:48:35;92712.19;;;11.56;39.81
61870;BME280;47810;42.264;23.826;2023-04-12T11:51:21;92723.44;;;11.18;37.34
61870;BME280;47810;42.264;23.826;2023-04-12T11:53:53;92715.06;;;11.43;40.61
61870;BME280;47810;42.264;23.826;2023-04-12T11:56:19;92713.28;;;11.54;39.39
61870;BME280;47810;42.264;23.826;2023-04-12T11:58:47;92711.25;;;12.17;39.80
61870;BME280;47810;42.264;23.826;2023-04-12T12:01:14;92708.97;;;12.03;36.48
61870;BME280;47810;42.264;23.826;2023-04-12T12:03:40;92713.88;;;12.27;37.90
61870;BME280;47810;42.264;23.826;2023-04-12T12:06:07;92715.97;;;12.43;37.70
61870;BME280;47810;42.264;23.826;2023-04-12T12:08:32;92709.16;;;12.30;35.22
61870;BME280;47810;42.264;23.826;2023-04-12T12:10:58;92721.00;;;12.46;32.90
61870;BME280;47810;42.264;23.826;2023-04-12T12:13:24;92720.38;;;11.94;33.94
61870;BME280;47810;42.264;23.826;2023-04-12T12:15:56;92727.13;;;12.17;33.98
61870;BME280;47810;42.264;23.826;2023-04-12T12:18:24;92731.00;;;12.42;33.39
61870;BME280;47810;42.264;23.826;2023-04-12T12:20:51;92735.47;;;12.32;34.19
61870;BME280;47810;42.264;23.826;2023-04-12T12:23:29;92744.69;;;12.57;32.36
61870;BME280;47810;42.264;23.826;2023-04-12T12:25:58;92735.88;;;12.86;32.15
61870;BME280;47810;42.264;23.826;2023-04-12T12:28:24;92739.50;;;12.85;30.27
61870;BME280;47810;42.264;23.826;2023-04-12T12:30:53;92736.72;;;12.76;31.79
61870;BME280;47810;42.264;23.826;2023-04-12T12:33:24;92742.09;;;13.33;30.26
61870;BME280;47810;42.264;23.826;2023-04-12T12:36:01;92722.53;;;13.71;30.50
61870;BME280;47810;42.264;23.826;2023-04-12T12:38:33;92713.06;;;13.69;31.33
61870;BME280;47810;42.264;23.826;2023-04-12T12:41:08;92713.84;;;13.79;29.39
61870;BME280;47810;42.264;23.826;2023-04-12T12:43:42;92708.06;;;13.93;29.92
61870;BME280;47810;42.264;23.826;2023-04-12T12:46:08;92697.69;;;14.18;30.56
61870;BME280;47810;42.264;23.826;2023-04-12T12:48:37;92710.13;;;14.17;29.85
61870;BME280;47810;42.264;23.826;2023-04-12T12:51:03;92691.88;;;14.32;30.02
61870;BME280;47810;42.264;23.826;2023-04-12T12:53:28;92690.09;;;14.41;29.74
61870;BME280;47810;42.264;23.826;2023-04-12T12:55:54;92692.06;;;14.03;28.45
61870;BME280;47810;42.264;23.826;2023-04-12T12:58:20;92694.91;;;13.92;27.53
61870;BME280;47810;42.264;23.826;2023-04-12T13:00:45;92678.09;;;14.01;27.75
61870;BME280;47810;42.264;23.826;2023-04-12T13:03:11;92692.91;;;14.21;31.80
61870;BME280;47810;42.264;23.826;2023-04-12T13:05:37;92694.66;;;14.31;30.75
61870;BME280;47810;42.264;23.826;2023-04-12T13:08:02;92696.59;;;13.65;30.25
61870;BME280;47810;42.264;23.826;2023-04-12T13:10:28;92704.56;;;13.65;31.67
61870;BME280;47810;42.264;23.826;2023-04-12T13:12:53;92704.53;;;13.93;29.79
61870;BME280;47810;42.264;23.826;2023-04-12T13:15:20;92699.28;;;14.11;28.89
61870;BME280;47810;42.264;23.826;2023-04-12T13:17:46;92712.31;;;14.04;30.74
61870;BME280;47810;42.264;23.826;2023-04-12T13:20:11;92695.91;;;13.91;29.59
61870;BME280;47810;42.264;23.826;2023-04-12T13:22:37;92718.06;;;13.35;32.28
61870;BME280;47810;42.264;23.826;2023-04-12T13:25:02;92713.56;;;12.88;31.46
61870;BME280;47810;42.264;23.826;2023-04-12T13:27:28;92715.06;;;13.10;33.41
61870;BME280;47810;42.264;23.826;2023-04-12T13:29:54;92720.94;;;13.04;33.47
61870;BME280;47810;42.264;23.826;2023-04-12T13:32:20;92720.03;;;13.42;33.46
61870;BME280;47810;42.264;23.826;2023-04-12T13:34:45;92731.25;;;13.54;31.60
61870;BME280;47810;42.264;23.826;2023-04-12T13:37:11;92725.69;;;13.00;33.07
61870;BME280;47810;42.264;23.826;2023-04-12T13:39:37;92715.16;;;13.28;31.86
61870;BME280;47810;42.264;23.826;2023-04-12T13:42:04;92717.91;;;13.73;33.11
61870;BME280;47810;42.264;23.826;2023-04-12T13:44:30;92714.59;;;13.71;32.22
61870;BME280;47810;42.264;23.826;2023-04-12T13:46:56;92714.28;;;13.74;30.76
61870;BME280;47810;42.264;23.826;2023-04-12T13:49:21;92717.03;;;13.83;31.74
61870;BME280;47810;42.264;23.826;2023-04-12T13:51:47;92729.16;;;14.13;30.81
61870;BME280;47810;42.264;23.826;2023-04-12T13:54:13;92728.53;;;13.73;31.28
61870;BME280;47810;42.264;23.826;2023-04-12T13:56:40;92718.97;;;13.90;31.11
61870;BME280;47810;42.264;23.826;2023-04-12T13:59:05;92723.91;;;14.03;30.00
61870;BME280;47810;42.264;23.826;2023-04-12T14:01:33;92730.72;;;14.06;30.34
61870;BME280;47810;42.264;23.826;2023-04-12T14:03:59;92718.03;;;14.09;30.05